createdAt,value
2019-04-10T00:00:11.167Z,0
2019-04-10T00:01:22.327Z,0
2019-04-10T00:02:34.070Z,0
2019-04-10T00:03:51.087Z,0
2019-04-10T00:05:01.577Z,0
2019-04-10T00:06:14.034Z,0
2019-04-10T00:07:29.162Z,0
2019-04-10T00:08:41.982Z,0
2019-04-10T00:09:52.679Z,0
2019-04-10T00:11:04.629Z,0
2019-04-10T00:12:16.011Z,0
2019-04-10T00:13:27.074Z,0
2019-04-10T00:14:38.677Z,0
2019-04-10T00:15:50.696Z,0
2019-04-10T00:17:02.648Z,0
2019-04-10T00:18:12.396Z,0
2019-04-10T00:19:23.053Z,0
2019-04-10T00:20:34.685Z,0
2019-04-10T00:21:45.234Z,0
2019-04-10T00:22:55.844Z,0
2019-04-10T00:24:06.746Z,0
2019-04-10T00:25:18.854Z,0
2019-04-10T00:26:30.248Z,0
2019-04-10T00:27:41.304Z,0
2019-04-10T00:28:52.097Z,0
2019-04-10T00:30:03.061Z,0
2019-04-10T00:31:14.198Z,0
2019-04-10T00:32:24.304Z,0
2019-04-10T00:33:35.032Z,0
2019-04-10T00:34:45.634Z,0
2019-04-10T00:35:56.693Z,0
2019-04-10T00:37:20.226Z,0
2019-04-10T00:38:34.304Z,0
2019-04-10T00:39:44.813Z,0
2019-04-10T00:40:55.485Z,0
2019-04-10T00:42:08.275Z,0
2019-04-10T00:43:19.506Z,0
2019-04-10T00:44:30.579Z,0
2019-04-10T00:45:41.764Z,0
2019-04-10T00:46:52.769Z,0
2019-04-10T00:48:03.751Z,0
2019-04-10T00:49:15.292Z,0
2019-04-10T00:50:26.465Z,0
2019-04-10T00:51:37.890Z,0
2019-04-10T00:52:48.946Z,0
2019-04-10T00:53:59.683Z,0
2019-04-10T00:55:11.221Z,0
2019-04-10T00:56:24.176Z,0
2019-04-10T00:57:37.144Z,0
2019-04-10T00:58:48.412Z,0
2019-04-10T00:59:59.434Z,0
2019-04-10T01:01:11.739Z,0
2019-04-10T01:02:21.276Z,0
2019-04-10T01:03:32.327Z,0
2019-04-10T01:04:43.288Z,0
2019-04-10T01:05:54.056Z,0
2019-04-10T01:07:04.948Z,0
2019-04-10T01:08:16.156Z,0
2019-04-10T01:09:26.475Z,0
2019-04-10T01:10:38.674Z,0
2019-04-10T01:11:49.882Z,0
2019-04-10T01:13:01.082Z,0
2019-04-10T01:14:11.994Z,0
2019-04-10T01:15:23.118Z,0
2019-04-10T01:16:33.967Z,0
2019-04-10T01:17:45.315Z,0
2019-04-10T01:18:56.069Z,0
2019-04-10T01:20:05.834Z,0
2019-04-10T01:21:22.844Z,0
2019-04-10T01:22:35.431Z,0
2019-04-10T01:23:47.356Z,0
2019-04-10T01:24:57.811Z,0
2019-04-10T01:26:08.288Z,0
2019-04-10T01:27:20.347Z,0
2019-04-10T01:28:31.270Z,0
2019-04-10T01:29:42.165Z,0
2019-04-10T01:30:53.147Z,0
2019-04-10T01:32:04.008Z,0
2019-04-10T01:33:14.879Z,0
2019-04-10T01:34:25.890Z,0
2019-04-10T01:35:36.865Z,0
2019-04-10T01:36:46.824Z,0
2019-04-10T01:38:11.637Z,0
2019-04-10T01:39:22.239Z,0
2019-04-10T01:40:35.079Z,0
2019-04-10T01:41:46.723Z,0
2019-04-10T01:43:24.878Z,0
2019-04-10T01:44:36.415Z,0
2019-04-10T01:45:46.969Z,0
2019-04-10T01:46:57.760Z,0
2019-04-10T01:48:09.928Z,0
2019-04-10T01:49:20.482Z,0
2019-04-10T01:50:31.115Z,0
2019-04-10T01:51:43.470Z,0
2019-04-10T01:52:55.219Z,0
2019-04-10T01:54:06.807Z,0
2019-04-10T01:55:38.812Z,0
2019-04-10T01:56:50.077Z,0
2019-04-10T01:58:01.017Z,0
2019-04-10T01:59:12.091Z,0
2019-04-10T02:00:24.004Z,0
2019-04-10T02:01:34.977Z,0
2019-04-10T02:02:45.945Z,0
2019-04-10T02:03:57.052Z,0
2019-04-10T02:05:08.833Z,0
2019-04-10T02:06:19.258Z,0
2019-04-10T02:07:32.305Z,0
2019-04-10T02:08:43.227Z,0
2019-04-10T02:09:54.525Z,0
2019-04-10T02:11:06.762Z,0
2019-04-10T02:12:18.395Z,0
2019-04-10T02:13:29.438Z,0
2019-04-10T02:14:40.293Z,0
2019-04-10T02:15:52.344Z,0
2019-04-10T02:17:01.649Z,0
2019-04-10T02:18:13.571Z,0
2019-04-10T02:19:24.092Z,0
2019-04-10T02:20:34.724Z,0
2019-04-10T02:21:45.290Z,0
2019-04-10T02:22:56.439Z,0
2019-04-10T02:24:07.604Z,0
2019-04-10T02:25:18.525Z,0
2019-04-10T02:26:28.276Z,0
2019-04-10T02:27:40.479Z,0
2019-04-10T02:28:51.262Z,0
2019-04-10T02:30:02.920Z,0
2019-04-10T02:31:16.605Z,0
2019-04-10T02:32:32.260Z,0
2019-04-10T02:33:43.830Z,0
2019-04-10T02:35:01.181Z,0
2019-04-10T02:36:13.529Z,0
2019-04-10T02:37:31.011Z,0
2019-04-10T02:39:46.161Z,0
2019-04-10T02:40:59.713Z,0
2019-04-10T02:42:12.239Z,0
2019-04-10T02:43:27.203Z,0
2019-04-10T02:44:41.623Z,0
2019-04-10T02:45:55.667Z,0
2019-04-10T02:47:13.004Z,0
2019-04-10T02:48:27.154Z,0
2019-04-10T02:49:42.124Z,0
2019-04-10T02:50:55.688Z,0
2019-04-10T02:52:10.896Z,0
2019-04-10T02:53:25.759Z,0
2019-04-10T02:54:41.703Z,0
2019-04-10T02:55:57.936Z,0
2019-04-10T02:57:13.423Z,0
2019-04-10T02:58:27.553Z,0
2019-04-10T02:59:43.111Z,0
2019-04-10T03:00:59.146Z,0
2019-04-10T03:02:14.162Z,0
2019-04-10T03:03:27.713Z,0
2019-04-10T03:04:40.539Z,0
2019-04-10T03:05:54.202Z,0
2019-04-10T03:07:07.561Z,0
2019-04-10T03:08:58.538Z,0
2019-04-10T03:11:01.629Z,0
2019-04-10T03:12:19.714Z,0
2019-04-10T03:13:37.966Z,0
2019-04-10T03:14:58.924Z,0
2019-04-10T03:16:11.758Z,0
2019-04-10T03:17:22.513Z,0
2019-04-10T03:18:33.305Z,0
2019-04-10T03:19:43.779Z,0
2019-04-10T03:20:54.327Z,0
2019-04-10T03:22:07.707Z,0
2019-04-10T03:23:20.793Z,0
2019-04-10T03:24:31.474Z,0
2019-04-10T03:25:43.747Z,0
2019-04-10T03:26:54.586Z,0
2019-04-10T03:28:05.610Z,0
2019-04-10T03:29:16.222Z,0
2019-04-10T03:30:36.395Z,0
2019-04-10T03:31:55.289Z,0
2019-04-10T03:33:33.472Z,0
2019-04-10T03:34:56.607Z,0
2019-04-10T03:36:07.924Z,0
2019-04-10T03:37:18.641Z,0
2019-04-10T03:38:28.640Z,0
2019-04-10T03:39:43.326Z,0
2019-04-10T03:40:53.890Z,0
2019-04-10T03:42:06.751Z,0
2019-04-10T03:43:17.471Z,0
2019-04-10T03:44:30.415Z,0
2019-04-10T03:45:41.003Z,0
2019-04-10T03:46:55.255Z,0
2019-04-10T03:48:08.288Z,0
2019-04-10T03:49:20.195Z,0
2019-04-10T03:50:31.944Z,0
2019-04-10T03:51:43.171Z,0
2019-04-10T03:52:54.265Z,0
2019-04-10T03:54:03.446Z,0
2019-04-10T03:55:16.647Z,0
2019-04-10T03:56:29.649Z,0
2019-04-10T03:57:41.015Z,0
2019-04-10T03:58:52.299Z,0
2019-04-10T04:00:04.008Z,0
2019-04-10T04:01:14.513Z,0
2019-04-10T04:02:27.350Z,0
2019-04-10T04:03:40.478Z,0
2019-04-10T04:04:52.456Z,0
2019-04-10T04:06:03.740Z,0
2019-04-10T04:07:15.376Z,0
2019-04-10T04:08:26.392Z,0
2019-04-10T04:09:37.727Z,0
2019-04-10T04:10:47.758Z,0
2019-04-10T04:11:58.492Z,0
2019-04-10T04:13:13.822Z,0
2019-04-10T04:14:24.807Z,0
2019-04-10T04:15:36.158Z,0
2019-04-10T04:16:47.031Z,0
2019-04-10T04:18:00.251Z,5
2019-04-10T04:19:12.254Z,5
2019-04-10T04:20:23.245Z,5
2019-04-10T04:21:34.449Z,5
2019-04-10T04:22:46.119Z,5
2019-04-10T04:23:57.564Z,5
2019-04-10T04:25:07.265Z,5
2019-04-10T04:26:17.803Z,5
2019-04-10T04:27:29.587Z,10
2019-04-10T04:28:39.750Z,10
2019-04-10T04:29:51.870Z,10
2019-04-10T04:31:05.185Z,10
2019-04-10T04:32:15.848Z,10
2019-04-10T04:33:26.269Z,10
2019-04-10T04:34:37.141Z,15
2019-04-10T04:35:48.093Z,15
2019-04-10T04:36:58.880Z,15
2019-04-10T04:38:09.663Z,15
2019-04-10T04:39:37.370Z,15
2019-04-10T04:40:47.122Z,20
2019-04-10T04:41:57.445Z,20
2019-04-10T04:43:08.479Z,20
2019-04-10T04:44:20.498Z,20
2019-04-10T04:45:30.857Z,20
2019-04-10T04:46:42.905Z,25
2019-04-10T04:47:53.942Z,25
2019-04-10T04:49:04.904Z,25
2019-04-10T04:50:15.657Z,25
2019-04-10T04:51:25.974Z,30
2019-04-10T04:52:37.570Z,30
2019-04-10T04:53:48.301Z,30
2019-04-10T04:55:00.427Z,30
2019-04-10T04:56:12.201Z,35
2019-04-10T04:57:22.709Z,35
2019-04-10T04:58:34.008Z,35
2019-04-10T04:59:45.174Z,40
2019-04-10T05:00:56.928Z,40
2019-04-10T05:02:06.612Z,40
2019-04-10T05:03:17.059Z,45
2019-04-10T05:04:27.700Z,45
2019-04-10T05:05:39.109Z,45
2019-04-10T05:06:50.195Z,45
2019-04-10T05:08:13.218Z,50
2019-04-10T05:09:46.412Z,50
2019-04-10T05:10:57.925Z,50
2019-04-10T05:12:07.694Z,55
2019-04-10T05:13:18.263Z,55
2019-04-10T05:14:29.524Z,55
2019-04-10T05:15:40.851Z,55
2019-04-10T05:16:51.932Z,55
2019-04-10T05:18:04.038Z,60
2019-04-10T05:19:15.149Z,60
2019-04-10T05:20:37.875Z,65
2019-04-10T05:21:50.428Z,65
2019-04-10T05:23:02.185Z,70
2019-04-10T05:24:13.916Z,70
2019-04-10T05:25:23.977Z,75
2019-04-10T05:26:36.260Z,75
2019-04-10T05:27:46.887Z,80
2019-04-10T05:28:57.754Z,80
2019-04-10T05:30:08.885Z,85
2019-04-10T05:31:19.898Z,90
2019-04-10T05:32:31.054Z,90
2019-04-10T05:33:41.560Z,95
2019-04-10T05:34:55.138Z,100
2019-04-10T05:36:07.021Z,105
2019-04-10T05:37:19.025Z,105
2019-04-10T05:38:31.516Z,110
2019-04-10T05:39:59.207Z,115
2019-04-10T05:41:09.480Z,115
2019-04-10T05:42:20.582Z,115
2019-04-10T05:43:31.521Z,120
2019-04-10T05:44:42.560Z,120
2019-04-10T05:45:53.427Z,120
2019-04-10T05:47:05.716Z,125
2019-04-10T05:48:17.174Z,125
2019-04-10T05:49:27.625Z,125
2019-04-10T05:50:38.098Z,130
2019-04-10T05:51:50.250Z,130
2019-04-10T05:53:02.469Z,130
2019-04-10T05:54:13.630Z,135
2019-04-10T05:55:24.599Z,135
2019-04-10T05:56:36.508Z,140
2019-04-10T05:57:47.510Z,140
2019-04-10T05:58:59.431Z,145
2019-04-10T06:00:10.854Z,145
2019-04-10T06:01:37.074Z,145
2019-04-10T06:02:50.461Z,145
2019-04-10T06:04:02.948Z,150
2019-04-10T06:05:13.980Z,155
2019-04-10T06:06:24.858Z,155
2019-04-10T06:07:35.297Z,160
2019-04-10T06:08:47.041Z,160
2019-04-10T06:10:15.747Z,165
2019-04-10T06:11:28.791Z,165
2019-04-10T06:12:41.208Z,170
2019-04-10T06:13:53.098Z,170
2019-04-10T06:15:04.875Z,170
2019-04-10T06:16:15.262Z,170
2019-04-10T06:17:27.358Z,175
2019-04-10T06:18:39.291Z,175
2019-04-10T06:19:51.319Z,175
2019-04-10T06:21:02.858Z,175
2019-04-10T06:22:15.184Z,175
2019-04-10T06:23:26.075Z,180
2019-04-10T06:24:37.030Z,180
2019-04-10T06:25:52.266Z,180
2019-04-10T06:27:04.446Z,180
2019-04-10T06:28:15.364Z,180
2019-04-10T06:29:28.697Z,185
2019-04-10T06:30:39.759Z,185
2019-04-10T06:31:52.665Z,190
2019-04-10T06:33:04.689Z,200
2019-04-10T06:34:22.576Z,200
2019-04-10T06:35:35.583Z,205
2019-04-10T06:36:46.792Z,205
2019-04-10T06:37:58.737Z,210
2019-04-10T06:39:11.244Z,210
2019-04-10T06:40:33.556Z,210
2019-04-10T06:41:46.595Z,205
2019-04-10T06:43:04.442Z,200
2019-04-10T06:44:17.370Z,200
2019-04-10T06:45:28.784Z,200
2019-04-10T06:46:44.463Z,200
2019-04-10T06:47:55.518Z,205
2019-04-10T06:49:09.142Z,210
2019-04-10T06:50:21.379Z,225
2019-04-10T06:51:33.405Z,230
2019-04-10T06:52:44.980Z,225
2019-04-10T06:54:16.316Z,210
2019-04-10T06:55:26.491Z,210
2019-04-10T06:56:37.809Z,210
2019-04-10T06:58:05.202Z,210
2019-04-10T06:59:17.064Z,210
2019-04-10T07:00:30.855Z,210
2019-04-10T07:02:24.447Z,215
2019-04-10T07:04:11.463Z,220
2019-04-10T07:05:36.460Z,225
2019-04-10T07:07:21.490Z,235
2019-04-10T07:08:36.402Z,245
2019-04-10T07:09:47.795Z,250
2019-04-10T07:11:22.985Z,260
2019-04-10T07:12:42.335Z,265
2019-04-10T07:13:55.164Z,270
2019-04-10T07:15:08.980Z,270
2019-04-10T07:16:20.775Z,275
2019-04-10T07:17:35.461Z,265
2019-04-10T07:18:54.702Z,270
2019-04-10T07:20:05.275Z,275
2019-04-10T07:21:17.023Z,275
2019-04-10T07:22:27.651Z,275
2019-04-10T07:23:41.409Z,285
2019-04-10T07:24:54.680Z,285
2019-04-10T07:26:06.417Z,290
2019-04-10T07:27:19.464Z,295
2019-04-10T07:28:30.858Z,300
2019-04-10T07:29:42.441Z,305
2019-04-10T07:30:57.821Z,315
2019-04-10T07:32:18.241Z,320
2019-04-10T07:33:31.440Z,320
2019-04-10T07:34:42.558Z,320
2019-04-10T07:35:59.218Z,320
2019-04-10T07:37:17.503Z,325
2019-04-10T07:38:32.912Z,335
2019-04-10T07:39:47.151Z,320
2019-04-10T07:40:59.479Z,320
2019-04-10T07:42:09.604Z,320
2019-04-10T07:43:28.947Z,320
2019-04-10T07:44:39.119Z,320
2019-04-10T07:45:48.818Z,325
2019-04-10T07:47:05.081Z,335
2019-04-10T07:48:16.443Z,345
2019-04-10T07:49:39.169Z,350
2019-04-10T07:50:54.021Z,355
2019-04-10T07:52:05.769Z,355
2019-04-10T07:53:16.818Z,355
2019-04-10T07:54:31.229Z,355
2019-04-10T07:55:55.004Z,350
2019-04-10T07:57:09.295Z,360
2019-04-10T07:58:21.428Z,350
2019-04-10T07:59:33.312Z,355
2019-04-10T08:00:45.261Z,360
2019-04-10T08:01:55.932Z,365
2019-04-10T08:03:08.207Z,370
2019-04-10T08:04:20.608Z,375
2019-04-10T08:05:30.579Z,380
2019-04-10T08:06:40.153Z,380
2019-04-10T08:07:52.809Z,385
2019-04-10T08:09:04.066Z,385
2019-04-10T08:10:15.817Z,395
2019-04-10T08:11:29.563Z,395
2019-04-10T08:13:00.182Z,400
2019-04-10T08:14:15.463Z,405
2019-04-10T08:15:27.561Z,400
2019-04-10T08:16:37.953Z,400
2019-04-10T08:17:53.987Z,390
2019-04-10T08:19:04.631Z,385
2019-04-10T08:20:15.739Z,395
2019-04-10T08:21:27.331Z,380
2019-04-10T08:22:39.529Z,390
2019-04-10T08:23:51.384Z,400
2019-04-10T08:25:02.547Z,405
2019-04-10T08:26:14.223Z,410
2019-04-10T08:27:24.376Z,410
2019-04-10T08:28:37.378Z,410
2019-04-10T08:29:50.949Z,405
2019-04-10T08:31:04.308Z,400
2019-04-10T08:32:16.264Z,395
2019-04-10T08:33:28.066Z,395
2019-04-10T08:34:38.155Z,400
2019-04-10T08:35:50.222Z,405
2019-04-10T08:37:04.478Z,405
2019-04-10T08:38:15.546Z,405
2019-04-10T08:39:54.814Z,415
2019-04-10T08:41:08.567Z,415
2019-04-10T08:42:19.201Z,415
2019-04-10T08:43:30.928Z,420
2019-04-10T08:44:43.145Z,420
2019-04-10T08:46:01.949Z,420
2019-04-10T08:47:13.481Z,420
2019-04-10T08:48:25.963Z,420
2019-04-10T08:49:38.905Z,420
2019-04-10T08:50:50.258Z,425
2019-04-10T08:52:00.385Z,435
2019-04-10T08:53:12.069Z,445
2019-04-10T08:54:23.824Z,450
2019-04-10T08:55:35.089Z,460
2019-04-10T08:56:47.306Z,470
2019-04-10T08:57:58.536Z,470
2019-04-10T08:59:09.983Z,475
2019-04-10T09:00:21.192Z,485
2019-04-10T09:01:33.409Z,500
2019-04-10T09:02:44.280Z,510
2019-04-10T09:03:55.474Z,515
2019-04-10T09:05:06.635Z,520
2019-04-10T09:06:18.111Z,520
2019-04-10T09:07:29.045Z,520
2019-04-10T09:08:39.812Z,530
2019-04-10T09:09:50.416Z,535
2019-04-10T09:11:01.215Z,545
2019-04-10T09:12:12.156Z,555
2019-04-10T09:13:22.551Z,550
2019-04-10T09:14:35.372Z,550
2019-04-10T09:15:45.793Z,550
2019-04-10T09:16:58.525Z,555
2019-04-10T09:18:11.346Z,555
2019-04-10T09:19:25.598Z,570
2019-04-10T09:20:38.482Z,580
2019-04-10T09:21:49.871Z,590
2019-04-10T09:24:00.679Z,605
2019-04-10T09:25:11.853Z,635
2019-04-10T09:26:22.986Z,595
2019-04-10T09:27:34.093Z,595
2019-04-10T09:28:46.539Z,690
2019-04-10T09:29:56.970Z,615
2019-04-10T09:31:07.558Z,605
2019-04-10T09:32:20.494Z,615
2019-04-10T09:33:39.649Z,610
2019-04-10T09:34:53.007Z,655
2019-04-10T09:36:03.057Z,605
2019-04-10T09:37:13.552Z,580
2019-04-10T09:38:26.383Z,550
2019-04-10T09:39:39.169Z,545
2019-04-10T09:40:51.232Z,630
2019-04-10T09:42:01.355Z,525
2019-04-10T09:43:14.161Z,545
2019-04-10T09:44:25.726Z,535
2019-04-10T09:45:37.392Z,570
2019-04-10T09:46:48.014Z,555
2019-04-10T09:47:58.221Z,585
2019-04-10T09:49:12.273Z,640
2019-04-10T09:50:25.024Z,715
2019-04-10T09:51:36.595Z,815
2019-04-10T09:52:48.607Z,675
2019-04-10T09:53:59.755Z,765
2019-04-10T09:55:10.101Z,705
2019-04-10T09:56:21.555Z,700
2019-04-10T09:57:32.197Z,835
2019-04-10T09:58:42.981Z,860
2019-04-10T09:59:55.077Z,860
2019-04-10T10:01:08.226Z,870
2019-04-10T10:02:19.762Z,830
2019-04-10T10:03:30.040Z,855
2019-04-10T10:04:42.119Z,860
2019-04-10T10:05:53.290Z,865
2019-04-10T10:07:04.395Z,880
2019-04-10T10:08:16.391Z,875
2019-04-10T10:09:29.221Z,900
2019-04-10T10:10:44.987Z,920
2019-04-10T10:11:56.088Z,925
2019-04-10T10:13:07.409Z,940
2019-04-10T10:14:17.597Z,1000
2019-04-10T10:15:29.778Z,990
2019-04-10T10:16:42.123Z,1025
2019-04-10T10:17:52.889Z,1075
2019-04-10T10:19:05.695Z,1100
2019-04-10T10:20:16.525Z,1100
2019-04-10T10:21:26.313Z,1125
2019-04-10T10:22:39.218Z,1150
2019-04-10T10:23:52.239Z,1120
2019-04-10T10:25:05.130Z,590
2019-04-10T10:26:15.492Z,1075
2019-04-10T10:27:27.135Z,1285
2019-04-10T10:28:39.218Z,1275
2019-04-10T10:29:50.929Z,1290
2019-04-10T10:31:04.318Z,1345
2019-04-10T10:32:15.386Z,1320
2019-04-10T10:33:26.176Z,1380
2019-04-10T10:34:37.006Z,1280
2019-04-10T10:35:49.492Z,1245
2019-04-10T10:37:03.820Z,1475
2019-04-10T10:38:15.845Z,1430
2019-04-10T10:39:28.956Z,575
2019-04-10T10:40:39.485Z,540
2019-04-10T10:41:51.241Z,510
2019-04-10T10:43:02.677Z,490
2019-04-10T10:44:13.504Z,490
2019-04-10T10:45:25.230Z,485
2019-04-10T10:46:36.260Z,500
2019-04-10T10:47:48.885Z,495
2019-04-10T10:48:59.998Z,485
2019-04-10T10:50:11.749Z,475
2019-04-10T10:51:23.139Z,470
2019-04-10T10:52:33.754Z,470
2019-04-10T10:53:44.110Z,490
2019-04-10T10:54:56.730Z,510
2019-04-10T10:56:09.561Z,535
2019-04-10T10:57:20.378Z,545
2019-04-10T10:58:32.404Z,750
2019-04-10T10:59:44.245Z,580
2019-04-10T11:00:56.069Z,570
2019-04-10T11:02:07.179Z,560
2019-04-10T11:03:18.551Z,565
2019-04-10T11:04:29.846Z,575
2019-04-10T11:05:42.365Z,590
2019-04-10T11:07:08.530Z,595
2019-04-10T11:08:20.774Z,605
2019-04-10T11:09:34.018Z,595
2019-04-10T11:10:55.457Z,615
2019-04-10T11:12:09.587Z,625
2019-04-10T11:13:19.904Z,625
2019-04-10T11:14:32.466Z,610
2019-04-10T11:15:52.387Z,625
2019-04-10T11:17:06.252Z,640
2019-04-10T11:18:18.214Z,1010
2019-04-10T11:19:31.947Z,1825
2019-04-10T11:20:44.024Z,1485
2019-04-10T11:21:57.052Z,1850
2019-04-10T11:23:09.499Z,1760
2019-04-10T11:24:22.811Z,1905
2019-04-10T11:25:35.811Z,1975
2019-04-10T11:26:50.330Z,1780
2019-04-10T11:28:03.940Z,1685
2019-04-10T11:29:17.539Z,760
2019-04-10T11:30:29.596Z,1785
2019-04-10T11:31:45.754Z,2070
2019-04-10T11:33:02.417Z,1945
2019-04-10T11:34:17.823Z,1985
2019-04-10T11:35:29.142Z,1925
2019-04-10T11:36:42.913Z,1845
2019-04-10T11:38:08.607Z,1950
2019-04-10T11:39:43.186Z,2110
2019-04-10T11:43:00.603Z,2065
2019-04-10T11:44:24.889Z,1925
2019-04-10T11:47:51.171Z,2105
2019-04-10T11:49:08.133Z,2180
2019-04-10T11:50:34.499Z,2175
2019-04-10T11:53:56.384Z,1990
2019-04-10T11:55:42.606Z,2165
2019-04-10T11:57:07.465Z,2085
2019-04-10T12:00:30.700Z,2145
2019-04-10T12:01:50.671Z,2115
2019-04-10T12:03:12.945Z,2190
2019-04-10T12:04:43.415Z,2205
2019-04-10T12:06:06.931Z,2120
2019-04-10T12:09:19.078Z,2310
2019-04-10T12:12:09.064Z,2440
2019-04-10T12:13:24.333Z,2445
2019-04-10T12:14:35.386Z,1745
2019-04-10T12:15:48.382Z,2455
2019-04-10T12:17:01.251Z,2450
2019-04-10T12:18:14.069Z,2470
2019-04-10T12:19:27.636Z,2510
2019-04-10T12:20:40.978Z,2375
2019-04-10T12:21:53.802Z,2115
2019-04-10T12:23:05.647Z,2250
2019-04-10T12:24:16.617Z,1570
2019-04-10T12:25:27.658Z,2430
2019-04-10T12:26:38.666Z,845
2019-04-10T12:27:49.761Z,695
2019-04-10T12:29:00.609Z,660
2019-04-10T12:30:11.663Z,660
2019-04-10T12:31:23.812Z,690
2019-04-10T12:32:36.662Z,710
2019-04-10T12:33:47.322Z,725
2019-04-10T12:34:58.741Z,875
2019-04-10T12:36:10.174Z,1450
2019-04-10T12:37:21.882Z,1555
2019-04-10T12:38:34.231Z,2320
2019-04-10T12:39:45.341Z,2355
2019-04-10T12:40:57.477Z,2350
2019-04-10T12:42:07.876Z,2420
2019-04-10T12:43:19.097Z,2440
2019-04-10T12:44:30.227Z,2500
2019-04-10T12:45:40.850Z,2455
2019-04-10T12:46:51.560Z,2270
2019-04-10T12:48:02.142Z,765
2019-04-10T12:49:15.051Z,755
2019-04-10T12:50:25.529Z,825
2019-04-10T12:51:34.929Z,705
2019-04-10T12:52:47.765Z,680
2019-04-10T12:54:00.984Z,730
2019-04-10T12:55:12.545Z,2470
2019-04-10T12:56:24.366Z,1045
2019-04-10T12:57:34.733Z,630
2019-04-10T12:58:45.028Z,565
2019-04-10T13:00:04.836Z,550
2019-04-10T13:01:17.014Z,535
2019-04-10T13:02:28.551Z,530
2019-04-10T13:03:40.864Z,565
2019-04-10T13:04:52.466Z,2430
2019-04-10T13:06:05.238Z,2335
2019-04-10T13:07:16.394Z,2545
2019-04-10T13:09:12.911Z,2610
2019-04-10T13:10:23.262Z,1525
2019-04-10T13:11:34.433Z,2565
2019-04-10T13:12:45.276Z,2520
2019-04-10T13:13:58.029Z,2610
2019-04-10T13:15:10.913Z,2650
2019-04-10T13:16:23.817Z,2535
2019-04-10T13:17:35.574Z,2450
2019-04-10T13:18:46.588Z,2515
2019-04-10T13:19:57.924Z,2550
2019-04-10T13:21:08.697Z,2485
2019-04-10T13:22:20.360Z,2520
2019-04-10T13:23:31.166Z,2550
2019-04-10T13:24:42.297Z,2555
2019-04-10T13:26:13.475Z,2540
2019-04-10T13:27:26.394Z,2445
2019-04-10T13:28:39.111Z,2545
2019-04-10T13:29:49.619Z,2695
2019-04-10T13:31:08.838Z,2570
2019-04-10T13:32:20.607Z,2600
2019-04-10T13:33:32.874Z,2680
2019-04-10T13:34:44.078Z,2615
2019-04-10T13:35:53.798Z,2540
2019-04-10T13:37:04.613Z,1070
2019-04-10T13:38:32.281Z,780
2019-04-10T13:39:44.312Z,690
2019-04-10T13:40:56.701Z,640
2019-04-10T13:42:07.627Z,620
2019-04-10T13:43:19.810Z,620
2019-04-10T13:44:31.158Z,590
2019-04-10T13:45:42.160Z,585
2019-04-10T13:46:53.162Z,550
2019-04-10T13:48:04.209Z,515
2019-04-10T13:49:14.280Z,500
2019-04-10T13:50:24.411Z,490
2019-04-10T13:51:35.161Z,500
2019-04-10T13:52:49.654Z,490
2019-04-10T13:54:04.434Z,495
2019-04-10T13:55:17.380Z,520
2019-04-10T13:56:28.799Z,595
2019-04-10T13:57:39.973Z,620
2019-04-10T13:58:51.169Z,1370
2019-04-10T14:00:02.242Z,2395
2019-04-10T14:01:13.625Z,2405
2019-04-10T14:02:25.402Z,2425
2019-04-10T14:03:36.473Z,2430
2019-04-10T14:04:47.242Z,2480
2019-04-10T14:05:57.977Z,2490
2019-04-10T14:07:09.883Z,2475
2019-04-10T14:08:32.317Z,2665
2019-04-10T14:10:00.704Z,2960
2019-04-10T14:11:13.069Z,2650
2019-04-10T14:12:25.298Z,2475
2019-04-10T14:13:36.439Z,2340
2019-04-10T14:14:47.603Z,2415
2019-04-10T14:15:58.471Z,610
2019-04-10T14:17:13.743Z,525
2019-04-10T14:18:24.463Z,485
2019-04-10T14:19:37.283Z,460
2019-04-10T14:20:48.480Z,460
2019-04-10T14:21:59.624Z,465
2019-04-10T14:23:10.807Z,460
2019-04-10T14:24:21.962Z,450
2019-04-10T14:25:34.034Z,455
2019-04-10T14:27:03.483Z,460
2019-04-10T14:28:16.343Z,480
2019-04-10T14:29:27.729Z,510
2019-04-10T14:30:40.193Z,625
2019-04-10T14:31:51.379Z,635
2019-04-10T14:33:03.443Z,590
2019-04-10T14:34:15.656Z,575
2019-04-10T14:35:27.649Z,540
2019-04-10T14:36:38.403Z,525
2019-04-10T14:37:48.266Z,490
2019-04-10T14:39:19.278Z,485
2019-04-10T14:40:29.216Z,490
2019-04-10T14:41:40.395Z,515
2019-04-10T14:42:51.374Z,525
2019-04-10T14:44:02.551Z,540
2019-04-10T14:45:13.866Z,595
2019-04-10T14:46:26.625Z,590
2019-04-10T14:47:39.225Z,580
2019-04-10T14:48:49.689Z,595
2019-04-10T14:50:05.256Z,675
2019-04-10T14:51:16.821Z,1495
2019-04-10T14:52:28.048Z,1960
2019-04-10T14:53:39.336Z,720
2019-04-10T14:54:50.531Z,1670
2019-04-10T14:56:02.232Z,2015
2019-04-10T14:57:13.021Z,2005
2019-04-10T14:58:39.376Z,2115
2019-04-10T14:59:52.498Z,2080
2019-04-10T15:01:02.788Z,2025
2019-04-10T15:02:15.413Z,555
2019-04-10T15:03:26.776Z,535
2019-04-10T15:04:37.853Z,535
2019-04-10T15:06:05.009Z,695
2019-04-10T15:07:17.697Z,600
2019-04-10T15:08:28.906Z,830
2019-04-10T15:09:39.688Z,840
2019-04-10T15:10:49.637Z,700
2019-04-10T15:12:02.807Z,585
2019-04-10T15:13:30.296Z,715
2019-04-10T15:14:45.764Z,585
2019-04-10T15:15:56.681Z,560
2019-04-10T15:17:15.394Z,2000
2019-04-10T15:18:26.525Z,470
2019-04-10T15:19:36.891Z,420
2019-04-10T15:20:47.744Z,390
2019-04-10T15:22:01.531Z,370
2019-04-10T15:23:12.720Z,355
2019-04-10T15:24:24.008Z,345
2019-04-10T15:25:35.613Z,345
2019-04-10T15:26:46.936Z,350
2019-04-10T15:27:56.660Z,350
2019-04-10T15:29:08.519Z,350
2019-04-10T15:30:20.294Z,345
2019-04-10T15:31:35.695Z,335
2019-04-10T15:32:47.831Z,330
2019-04-10T15:33:58.928Z,335
2019-04-10T15:35:10.745Z,345
2019-04-10T15:36:22.438Z,350
2019-04-10T15:37:33.259Z,360
2019-04-10T15:38:44.519Z,375
2019-04-10T15:39:54.509Z,410
2019-04-10T15:41:06.431Z,425
2019-04-10T15:42:19.724Z,785
2019-04-10T15:43:35.038Z,1655
2019-04-10T15:44:48.498Z,1715
2019-04-10T15:46:00.169Z,1680
2019-04-10T15:47:29.663Z,1560
2019-04-10T15:48:40.688Z,1235
2019-04-10T15:49:52.177Z,435
2019-04-10T15:51:03.633Z,250
2019-04-10T15:52:14.971Z,225
2019-04-10T15:53:26.782Z,205
2019-04-10T15:54:38.117Z,195
2019-04-10T15:55:48.138Z,190
2019-04-10T15:57:00.309Z,180
2019-04-10T15:58:13.538Z,175
2019-04-10T15:59:24.692Z,180
2019-04-10T16:00:35.442Z,185
2019-04-10T16:01:46.895Z,195
2019-04-10T16:03:00.698Z,200
2019-04-10T16:04:12.172Z,205
2019-04-10T16:05:23.613Z,210
2019-04-10T16:06:35.599Z,210
2019-04-10T16:07:46.692Z,205
2019-04-10T16:08:59.053Z,205
2019-04-10T16:10:13.249Z,210
2019-04-10T16:11:24.303Z,215
2019-04-10T16:12:35.611Z,215
2019-04-10T16:13:46.818Z,215
2019-04-10T16:14:57.905Z,215
2019-04-10T16:16:09.570Z,210
2019-04-10T16:17:22.216Z,210
2019-04-10T16:18:33.114Z,200
2019-04-10T16:19:45.336Z,200
2019-04-10T16:20:55.544Z,205
2019-04-10T16:22:09.005Z,215
2019-04-10T16:23:21.904Z,215
2019-04-10T16:24:33.561Z,220
2019-04-10T16:25:44.583Z,220
2019-04-10T16:26:56.088Z,230
2019-04-10T16:28:08.697Z,240
2019-04-10T16:29:18.681Z,245
2019-04-10T16:30:29.027Z,250
2019-04-10T16:31:40.284Z,255
2019-04-10T16:32:52.563Z,260
2019-04-10T16:34:03.625Z,275
2019-04-10T16:35:16.354Z,325
2019-04-10T16:36:29.663Z,620
2019-04-10T16:37:41.600Z,865
2019-04-10T16:38:53.177Z,320
2019-04-10T16:40:18.518Z,530
2019-04-10T16:41:33.404Z,710
2019-04-10T16:42:46.747Z,550
2019-04-10T16:43:57.719Z,735
2019-04-10T16:45:10.085Z,705
2019-04-10T16:46:23.543Z,455
2019-04-10T16:47:34.746Z,560
2019-04-10T16:48:46.550Z,315
2019-04-10T16:49:57.639Z,200
2019-04-10T16:51:08.264Z,180
2019-04-10T16:52:20.710Z,175
2019-04-10T16:53:32.638Z,165
2019-04-10T16:54:43.460Z,160
2019-04-10T16:55:54.342Z,150
2019-04-10T16:57:05.067Z,145
2019-04-10T16:58:16.020Z,145
2019-04-10T16:59:26.205Z,140
2019-04-10T17:00:37.902Z,145
2019-04-10T17:01:51.045Z,130
2019-04-10T17:03:02.003Z,125
2019-04-10T17:04:12.070Z,120
2019-04-10T17:05:23.378Z,115
2019-04-10T17:06:34.165Z,115
2019-04-10T17:07:45.628Z,115
2019-04-10T17:08:56.732Z,110
2019-04-10T17:10:32.372Z,105
2019-04-10T17:11:45.131Z,105
2019-04-10T17:12:58.153Z,100
2019-04-10T17:14:11.004Z,95
2019-04-10T17:15:22.632Z,90
2019-04-10T17:16:34.200Z,85